sensor_id;sensor_type;location;lat;lon;timestamp;P1;durP1;ratioP1;P2;durP2;ratioP2
7685;SDS011;3885;51.474;-2.576;2023-02-28T00:01:19;1.13;;;1.07;;
7685;SDS011;3885;51.474;-2.576;2023-02-28T00:03:47;3.10;;;1.13;;
7685;SDS011;3885;51.474;-2.576;2023-02-28T00:06:15;5.13;;;1.83;;
7685;SDS011;3885;51.474;-2.576;2023-02-28T00:08:42;3.73;;;0.73;;
7685;SDS011;3885;51.474;-2.576;2023-02-28T00:11:10;4.83;;;1.40;;
7685;SDS011;3885;51.474;-2.576;2023-02-28T00:13:40;1.00;;;1.00;;
7685;SDS011;3885;51.474;-2.576;2023-02-28T00:16:09;1.60;;;1.50;;
7685;SDS011;3885;51.474;-2.576;2023-02-28T00:18:39;1.63;;;1.00;;
7685;SDS011;3885;51.474;-2.576;2023-02-28T00:21:07;0.70;;;0.70;;
7685;SDS011;3885;51.474;-2.576;2023-02-28T00:23:36;7.90;;;1.10;;
7685;SDS011;3885;51.474;-2.576;2023-02-28T00:26:03;1.03;;;0.93;;
7685;SDS011;3885;51.474;-2.576;2023-02-28T00:28:30;1.00;;;1.00;;
7685;SDS011;3885;51.474;-2.576;2023-02-28T00:30:57;1.53;;;0.90;;
7685;SDS011;3885;51.474;-2.576;2023-02-28T00:33:25;1.97;;;0.80;;
7685;SDS011;3885;51.474;-2.576;2023-02-28T00:35:52;3.57;;;1.40;;
7685;SDS011;3885;51.474;-2.576;2023-02-28T00:38:28;1.00;;;1.00;;
7685;SDS011;3885;51.474;-2.576;2023-02-28T00:40:56;11.10;;;1.50;;
7685;SDS011;3885;51.474;-2.576;2023-02-28T00:43:29;2.20;;;1.10;;
7685;SDS011;3885;51.474;-2.576;2023-02-28T00:45:56;4.30;;;1.60;;
7685;SDS011;3885;51.474;-2.576;2023-02-28T00:48:23;1.33;;;0.77;;
7685;SDS011;3885;51.474;-2.576;2023-02-28T00:50:51;2.07;;;1.97;;
7685;SDS011;3885;51.474;-2.576;2023-02-28T00:53:17;2.20;;;1.33;;
7685;SDS011;3885;51.474;-2.576;2023-02-28T00:55:44;1.10;;;1.00;;
7685;SDS011;3885;51.474;-2.576;2023-02-28T00:58:13;2.00;;;1.50;;
7685;SDS011;3885;51.474;-2.576;2023-02-28T01:00:40;1.97;;;1.70;;
7685;SDS011;3885;51.474;-2.576;2023-02-28T01:03:07;3.03;;;1.43;;
7685;SDS011;3885;51.474;-2.576;2023-02-28T01:05:33;6.80;;;1.37;;
7685;SDS011;3885;51.474;-2.576;2023-02-28T01:08:00;3.20;;;1.83;;
7685;SDS011;3885;51.474;-2.576;2023-02-28T01:10:27;2.70;;;1.30;;
7685;SDS011;3885;51.474;-2.576;2023-02-28T01:12:56;2.57;;;1.20;;
7685;SDS011;3885;51.474;-2.576;2023-02-28T01:15:24;3.53;;;1.20;;
7685;SDS011;3885;51.474;-2.576;2023-02-28T01:17:51;1.17;;;1.07;;
7685;SDS011;3885;51.474;-2.576;2023-02-28T01:20:18;1.90;;;1.17;;
7685;SDS011;3885;51.474;-2.576;2023-02-28T01:22:45;3.83;;;1.33;;
7685;SDS011;3885;51.474;-2.576;2023-02-28T01:25:12;3.00;;;1.37;;
7685;SDS011;3885;51.474;-2.576;2023-02-28T01:27:39;1.57;;;1.47;;
7685;SDS011;3885;51.474;-2.576;2023-02-28T01:30:07;2.40;;;1.23;;
7685;SDS011;3885;51.474;-2.576;2023-02-28T01:32:36;0.93;;;0.80;;
7685;SDS011;3885;51.474;-2.576;2023-02-28T01:35:03;3.10;;;2.60;;
7685;SDS011;3885;51.474;-2.576;2023-02-28T01:37:31;1.60;;;1.27;;
7685;SDS011;3885;51.474;-2.576;2023-02-28T01:39:57;1.07;;;0.87;;
7685;SDS011;3885;51.474;-2.576;2023-02-28T01:42:24;7.90;;;2.20;;
7685;SDS011;3885;51.474;-2.576;2023-02-28T01:44:59;1.30;;;1.27;;
7685;SDS011;3885;51.474;-2.576;2023-02-28T01:47:29;4.20;;;1.10;;
7685;SDS011;3885;51.474;-2.576;2023-02-28T01:49:58;0.73;;;0.73;;
7685;SDS011;3885;51.474;-2.576;2023-02-28T01:52:27;2.20;;;1.30;;
7685;SDS011;3885;51.474;-2.576;2023-02-28T01:54:55;7.30;;;1.07;;
7685;SDS011;3885;51.474;-2.576;2023-02-28T01:57:25;7.03;;;1.20;;
7685;SDS011;3885;51.474;-2.576;2023-02-28T01:59:56;1.57;;;1.47;;
7685;SDS011;3885;51.474;-2.576;2023-02-28T02:02:26;2.10;;;1.10;;
7685;SDS011;3885;51.474;-2.576;2023-02-28T02:04:55;3.20;;;1.33;;
7685;SDS011;3885;51.474;-2.576;2023-02-28T02:07:28;2.03;;;1.20;;
7685;SDS011;3885;51.474;-2.576;2023-02-28T02:10:02;1.33;;;1.20;;
7685;SDS011;3885;51.474;-2.576;2023-02-28T02:12:34;2.20;;;1.57;;
7685;SDS011;3885;51.474;-2.576;2023-02-28T02:15:16;4.63;;;1.10;;
7685;SDS011;3885;51.474;-2.576;2023-02-28T02:17:48;1.53;;;1.43;;
7685;SDS011;3885;51.474;-2.576;2023-02-28T02:26:01;1.77;;;1.50;;
7685;SDS011;3885;51.474;-2.576;2023-02-28T02:28:57;1.27;;;1.17;;
7685;SDS011;3885;51.474;-2.576;2023-02-28T02:34:42;1.47;;;1.07;;
7685;SDS011;3885;51.474;-2.576;2023-02-28T02:37:29;0.73;;;0.70;;
7685;SDS011;3885;51.474;-2.576;2023-02-28T02:40:04;1.10;;;1.00;;
7685;SDS011;3885;51.474;-2.576;2023-02-28T02:42:39;0.90;;;0.90;;
7685;SDS011;3885;51.474;-2.576;2023-02-28T02:45:11;3.63;;;1.23;;
7685;SDS011;3885;51.474;-2.576;2023-02-28T02:47:41;1.40;;;1.10;;
7685;SDS011;3885;51.474;-2.576;2023-02-28T02:50:12;4.20;;;1.00;;
7685;SDS011;3885;51.474;-2.576;2023-02-28T02:52:44;7.83;;;2.87;;
7685;SDS011;3885;51.474;-2.576;2023-02-28T02:55:15;2.70;;;1.10;;
7685;SDS011;3885;51.474;-2.576;2023-02-28T02:57:45;3.53;;;1.37;;
7685;SDS011;3885;51.474;-2.576;2023-02-28T03:00:15;0.83;;;0.77;;
7685;SDS011;3885;51.474;-2.576;2023-02-28T03:02:45;1.87;;;1.30;;
7685;SDS011;3885;51.474;-2.576;2023-02-28T03:05:17;1.93;;;1.00;;
7685;SDS011;3885;51.474;-2.576;2023-02-28T03:07:48;0.80;;;0.80;;
7685;SDS011;3885;51.474;-2.576;2023-02-28T03:10:32;1.57;;;0.80;;
7685;SDS011;3885;51.474;-2.576;2023-02-28T03:13:04;1.30;;;1.23;;
7685;SDS011;3885;51.474;-2.576;2023-02-28T03:15:52;1.87;;;1.00;;
7685;SDS011;3885;51.474;-2.576;2023-02-28T03:18:34;2.53;;;1.50;;
7685;SDS011;3885;51.474;-2.576;2023-02-28T03:21:09;1.40;;;1.30;;
7685;SDS011;3885;51.474;-2.576;2023-02-28T03:23:44;2.60;;;1.30;;
7685;SDS011;3885;51.474;-2.576;2023-02-28T03:26:18;1.13;;;1.13;;
7685;SDS011;3885;51.474;-2.576;2023-02-28T03:28:49;1.20;;;1.10;;
7685;SDS011;3885;51.474;-2.576;2023-02-28T03:31:22;1.50;;;1.03;;
7685;SDS011;3885;51.474;-2.576;2023-02-28T03:33:58;1.00;;;0.80;;
7685;SDS011;3885;51.474;-2.576;2023-02-28T03:36:29;1.50;;;1.40;;
7685;SDS011;3885;51.474;-2.576;2023-02-28T03:39:02;3.77;;;1.03;;
7685;SDS011;3885;51.474;-2.576;2023-02-28T03:41:31;1.43;;;1.10;;
7685;SDS011;3885;51.474;-2.576;2023-02-28T03:44:06;1.30;;;1.13;;
7685;SDS011;3885;51.474;-2.576;2023-02-28T03:46:40;3.40;;;1.83;;
7685;SDS011;3885;51.474;-2.576;2023-02-28T03:49:13;3.30;;;1.17;;
7685;SDS011;3885;51.474;-2.576;2023-02-28T03:51:44;3.30;;;1.13;;
7685;SDS011;3885;51.474;-2.576;2023-02-28T03:54:14;1.93;;;1.40;;
7685;SDS011;3885;51.474;-2.576;2023-02-28T03:56:42;2.57;;;1.63;;
7685;SDS011;3885;51.474;-2.576;2023-02-28T03:59:15;4.50;;;1.40;;
7685;SDS011;3885;51.474;-2.576;2023-02-28T04:01:48;3.50;;;0.90;;
7685;SDS011;3885;51.474;-2.576;2023-02-28T04:04:17;1.87;;;1.77;;
7685;SDS011;3885;51.474;-2.576;2023-02-28T04:06:45;1.00;;;1.00;;
7685;SDS011;3885;51.474;-2.576;2023-02-28T04:09:15;1.77;;;0.87;;
7685;SDS011;3885;51.474;-2.576;2023-02-28T04:11:42;1.27;;;1.17;;
7685;SDS011;3885;51.474;-2.576;2023-02-28T04:14:12;0.80;;;0.80;;
7685;SDS011;3885;51.474;-2.576;2023-02-28T04:16:40;2.70;;;1.60;;
7685;SDS011;3885;51.474;-2.576;2023-02-28T04:19:08;1.30;;;1.20;;
7685;SDS011;3885;51.474;-2.576;2023-02-28T04:21:36;1.37;;;0.83;;
7685;SDS011;3885;51.474;-2.576;2023-02-28T04:24:06;4.10;;;1.20;;
7685;SDS011;3885;51.474;-2.576;2023-02-28T04:26:34;1.63;;;1.53;;
7685;SDS011;3885;51.474;-2.576;2023-02-28T04:29:02;2.70;;;1.70;;
7685;SDS011;3885;51.474;-2.576;2023-02-28T04:31:30;7.90;;;1.90;;
7685;SDS011;3885;51.474;-2.576;2023-02-28T04:33:57;2.10;;;1.50;;
7685;SDS011;3885;51.474;-2.576;2023-02-28T04:36:24;1.33;;;1.23;;
7685;SDS011;3885;51.474;-2.576;2023-02-28T04:38:51;1.60;;;1.40;;
7685;SDS011;3885;51.474;-2.576;2023-02-28T04:41:20;2.30;;;1.43;;
7685;SDS011;3885;51.474;-2.576;2023-02-28T04:43:47;4.00;;;1.80;;
7685;SDS011;3885;51.474;-2.576;2023-02-28T04:46:14;4.43;;;1.20;;
7685;SDS011;3885;51.474;-2.576;2023-02-28T04:48:43;3.03;;;1.30;;
7685;SDS011;3885;51.474;-2.576;2023-02-28T04:51:12;3.07;;;1.73;;
7685;SDS011;3885;51.474;-2.576;2023-02-28T04:53:41;1.33;;;1.23;;
7685;SDS011;3885;51.474;-2.576;2023-02-28T04:56:10;1.33;;;1.17;;
7685;SDS011;3885;51.474;-2.576;2023-02-28T04:58:39;2.23;;;1.67;;
7685;SDS011;3885;51.474;-2.576;2023-02-28T05:01:14;2.63;;;1.70;;
7685;SDS011;3885;51.474;-2.576;2023-02-28T05:03:44;1.53;;;1.43;;
7685;SDS011;3885;51.474;-2.576;2023-02-28T05:06:11;7.50;;;1.60;;
7685;SDS011;3885;51.474;-2.576;2023-02-28T05:08:39;1.50;;;1.40;;
7685;SDS011;3885;51.474;-2.576;2023-02-28T05:11:06;1.83;;;1.40;;
7685;SDS011;3885;51.474;-2.576;2023-02-28T05:13:41;4.30;;;1.73;;
7685;SDS011;3885;51.474;-2.576;2023-02-28T05:16:08;1.70;;;1.60;;
7685;SDS011;3885;51.474;-2.576;2023-02-28T05:18:35;1.70;;;1.60;;
7685;SDS011;3885;51.474;-2.576;2023-02-28T05:21:02;2.17;;;1.47;;
7685;SDS011;3885;51.474;-2.576;2023-02-28T05:23:29;1.93;;;1.83;;
7685;SDS011;3885;51.474;-2.576;2023-02-28T05:25:56;1.87;;;1.67;;
7685;SDS011;3885;51.474;-2.576;2023-02-28T05:28:23;1.60;;;1.43;;
7685;SDS011;3885;51.474;-2.576;2023-02-28T05:30:51;2.30;;;2.13;;
7685;SDS011;3885;51.474;-2.576;2023-02-28T05:33:18;1.97;;;1.77;;
7685;SDS011;3885;51.474;-2.576;2023-02-28T05:35:45;3.17;;;1.50;;
7685;SDS011;3885;51.474;-2.576;2023-02-28T05:38:12;1.20;;;1.00;;
7685;SDS011;3885;51.474;-2.576;2023-02-28T05:40:39;1.90;;;1.10;;
7685;SDS011;3885;51.474;-2.576;2023-02-28T05:43:08;1.50;;;1.40;;
7685;SDS011;3885;51.474;-2.576;2023-02-28T05:45:36;2.47;;;1.67;;
7685;SDS011;3885;51.474;-2.576;2023-02-28T05:48:05;2.10;;;1.80;;
7685;SDS011;3885;51.474;-2.576;2023-02-28T05:50:32;1.77;;;1.67;;
7685;SDS011;3885;51.474;-2.576;2023-02-28T05:52:59;1.10;;;1.00;;
7685;SDS011;3885;51.474;-2.576;2023-02-28T05:55:26;0.90;;;0.90;;
7685;SDS011;3885;51.474;-2.576;2023-02-28T05:57:53;2.30;;;1.60;;
7685;SDS011;3885;51.474;-2.576;2023-02-28T06:00:21;2.97;;;2.10;;
7685;SDS011;3885;51.474;-2.576;2023-02-28T06:02:48;5.80;;;1.87;;
7685;SDS011;3885;51.474;-2.576;2023-02-28T06:05:17;4.00;;;1.10;;
7685;SDS011;3885;51.474;-2.576;2023-02-28T06:07:45;2.80;;;1.60;;
7685;SDS011;3885;51.474;-2.576;2023-02-28T06:10:13;4.63;;;2.00;;
7685;SDS011;3885;51.474;-2.576;2023-02-28T06:12:40;2.30;;;2.10;;
7685;SDS011;3885;51.474;-2.576;2023-02-28T06:15:09;2.53;;;1.70;;
7685;SDS011;3885;51.474;-2.576;2023-02-28T06:17:39;2.17;;;1.50;;
7685;SDS011;3885;51.474;-2.576;2023-02-28T06:20:07;2.00;;;1.80;;
7685;SDS011;3885;51.474;-2.576;2023-02-28T06:22:37;1.80;;;1.70;;
7685;SDS011;3885;51.474;-2.576;2023-02-28T06:25:04;19.83;;;2.13;;
7685;SDS011;3885;51.474;-2.576;2023-02-28T06:27:32;4.00;;;2.00;;
7685;SDS011;3885;51.474;-2.576;2023-02-28T06:29:59;2.40;;;2.07;;
7685;SDS011;3885;51.474;-2.576;2023-02-28T06:32:26;2.83;;;2.57;;
7685;SDS011;3885;51.474;-2.576;2023-02-28T06:34:53;3.03;;;2.73;;
7685;SDS011;3885;51.474;-2.576;2023-02-28T06:37:22;3.17;;;2.87;;
7685;SDS011;3885;51.474;-2.576;2023-02-28T06:39:53;3.03;;;2.53;;
7685;SDS011;3885;51.474;-2.576;2023-02-28T06:42:21;5.40;;;3.07;;
7685;SDS011;3885;51.474;-2.576;2023-02-28T06:44:49;4.00;;;3.30;;
7685;SDS011;3885;51.474;-2.576;2023-02-28T06:47:16;5.03;;;2.90;;
7685;SDS011;3885;51.474;-2.576;2023-02-28T06:49:43;5.23;;;2.60;;
7685;SDS011;3885;51.474;-2.576;2023-02-28T06:52:11;4.73;;;2.57;;
7685;SDS011;3885;51.474;-2.576;2023-02-28T06:54:38;5.37;;;3.33;;
7685;SDS011;3885;51.474;-2.576;2023-02-28T06:57:06;4.67;;;3.40;;
7685;SDS011;3885;51.474;-2.576;2023-02-28T06:59:33;4.00;;;3.40;;
7685;SDS011;3885;51.474;-2.576;2023-02-28T07:02:01;5.30;;;4.27;;
7685;SDS011;3885;51.474;-2.576;2023-02-28T07:04:28;6.23;;;4.10;;
7685;SDS011;3885;51.474;-2.576;2023-02-28T07:06:55;5.07;;;3.50;;
7685;SDS011;3885;51.474;-2.576;2023-02-28T07:09:22;4.83;;;4.03;;
7685;SDS011;3885;51.474;-2.576;2023-02-28T07:11:54;8.13;;;4.17;;
7685;SDS011;3885;51.474;-2.576;2023-02-28T07:14:23;8.67;;;4.67;;
7685;SDS011;3885;51.474;-2.576;2023-02-28T07:16:50;5.20;;;4.20;;
7685;SDS011;3885;51.474;-2.576;2023-02-28T07:19:17;10.67;;;4.70;;
7685;SDS011;3885;51.474;-2.576;2023-02-28T07:21:44;5.60;;;4.07;;
7685;SDS011;3885;51.474;-2.576;2023-02-28T07:24:11;6.20;;;4.30;;
7685;SDS011;3885;51.474;-2.576;2023-02-28T07:26:40;6.57;;;4.20;;
7685;SDS011;3885;51.474;-2.576;2023-02-28T07:29:08;9.27;;;4.47;;
7685;SDS011;3885;51.474;-2.576;2023-02-28T07:31:36;4.83;;;4.37;;
7685;SDS011;3885;51.474;-2.576;2023-02-28T07:34:03;5.23;;;4.03;;
7685;SDS011;3885;51.474;-2.576;2023-02-28T07:36:30;7.17;;;4.47;;
7685;SDS011;3885;51.474;-2.576;2023-02-28T07:38:57;4.87;;;4.03;;
7685;SDS011;3885;51.474;-2.576;2023-02-28T07:41:25;9.87;;;5.20;;
7685;SDS011;3885;51.474;-2.576;2023-02-28T07:43:54;4.13;;;3.70;;
7685;SDS011;3885;51.474;-2.576;2023-02-28T07:46:22;6.10;;;4.20;;
7685;SDS011;3885;51.474;-2.576;2023-02-28T07:48:51;11.97;;;4.90;;
7685;SDS011;3885;51.474;-2.576;2023-02-28T07:51:19;11.63;;;5.17;;
7685;SDS011;3885;51.474;-2.576;2023-02-28T07:53:46;6.37;;;4.20;;
7685;SDS011;3885;51.474;-2.576;2023-02-28T07:56:13;8.57;;;3.63;;
7685;SDS011;3885;51.474;-2.576;2023-02-28T07:58:40;8.90;;;4.67;;
7685;SDS011;3885;51.474;-2.576;2023-02-28T08:01:07;5.40;;;4.20;;
7685;SDS011;3885;51.474;-2.576;2023-02-28T08:03:35;8.77;;;3.83;;
7685;SDS011;3885;51.474;-2.576;2023-02-28T08:06:04;3.50;;;3.20;;
7685;SDS011;3885;51.474;-2.576;2023-02-28T08:08:32;6.43;;;4.40;;
7685;SDS011;3885;51.474;-2.576;2023-02-28T08:10:59;5.43;;;4.00;;
7685;SDS011;3885;51.474;-2.576;2023-02-28T08:13:27;4.80;;;3.77;;
7685;SDS011;3885;51.474;-2.576;2023-02-28T08:15:55;5.43;;;3.27;;
7685;SDS011;3885;51.474;-2.576;2023-02-28T08:18:23;4.47;;;3.30;;
7685;SDS011;3885;51.474;-2.576;2023-02-28T08:20:50;6.47;;;3.73;;
7685;SDS011;3885;51.474;-2.576;2023-02-28T08:23:18;13.10;;;3.80;;
7685;SDS011;3885;51.474;-2.576;2023-02-28T08:25:52;4.47;;;3.90;;
7685;SDS011;3885;51.474;-2.576;2023-02-28T08:28:19;4.17;;;3.47;;
7685;SDS011;3885;51.474;-2.576;2023-02-28T08:30:47;5.33;;;4.10;;
7685;SDS011;3885;51.474;-2.576;2023-02-28T08:33:14;25.23;;;12.90;;
7685;SDS011;3885;51.474;-2.576;2023-02-28T08:35:41;8.63;;;5.87;;
7685;SDS011;3885;51.474;-2.576;2023-02-28T08:38:08;6.20;;;5.30;;
7685;SDS011;3885;51.474;-2.576;2023-02-28T08:40:37;9.20;;;6.23;;
7685;SDS011;3885;51.474;-2.576;2023-02-28T08:43:04;10.37;;;6.40;;
7685;SDS011;3885;51.474;-2.576;2023-02-28T08:45:31;8.87;;;5.60;;
7685;SDS011;3885;51.474;-2.576;2023-02-28T08:47:58;7.23;;;4.97;;
7685;SDS011;3885;51.474;-2.576;2023-02-28T08:50:25;8.30;;;4.67;;
7685;SDS011;3885;51.474;-2.576;2023-02-28T08:52:52;10.97;;;7.07;;
7685;SDS011;3885;51.474;-2.576;2023-02-28T08:55:20;17.40;;;9.00;;
7685;SDS011;3885;51.474;-2.576;2023-02-28T08:57:48;11.40;;;5.90;;
7685;SDS011;3885;51.474;-2.576;2023-02-28T09:00:16;14.43;;;7.60;;
7685;SDS011;3885;51.474;-2.576;2023-02-28T09:02:43;11.50;;;6.17;;
7685;SDS011;3885;51.474;-2.576;2023-02-28T09:05:10;9.13;;;4.97;;
7685;SDS011;3885;51.474;-2.576;2023-02-28T09:07:37;8.50;;;5.20;;
7685;SDS011;3885;51.474;-2.576;2023-02-28T09:10:04;16.00;;;6.30;;
7685;SDS011;3885;51.474;-2.576;2023-02-28T09:12:32;14.00;;;5.10;;
7685;SDS011;3885;51.474;-2.576;2023-02-28T09:15:02;8.20;;;5.87;;
7685;SDS011;3885;51.474;-2.576;2023-02-28T09:17:29;12.63;;;6.23;;
7685;SDS011;3885;51.474;-2.576;2023-02-28T09:19:56;10.23;;;6.17;;
7685;SDS011;3885;51.474;-2.576;2023-02-28T09:22:24;11.53;;;7.00;;
7685;SDS011;3885;51.474;-2.576;2023-02-28T09:24:51;11.80;;;6.80;;
7685;SDS011;3885;51.474;-2.576;2023-02-28T09:27:18;9.20;;;5.20;;
7685;SDS011;3885;51.474;-2.576;2023-02-28T09:29:45;23.60;;;7.17;;
7685;SDS011;3885;51.474;-2.576;2023-02-28T09:32:14;14.27;;;6.90;;
7685;SDS011;3885;51.474;-2.576;2023-02-28T09:34:43;10.10;;;6.97;;
7685;SDS011;3885;51.474;-2.576;2023-02-28T09:37:10;9.33;;;5.70;;
7685;SDS011;3885;51.474;-2.576;2023-02-28T09:39:37;13.20;;;7.10;;
7685;SDS011;3885;51.474;-2.576;2023-02-28T09:42:04;13.77;;;7.27;;
7685;SDS011;3885;51.474;-2.576;2023-02-28T09:44:35;11.47;;;6.33;;
7685;SDS011;3885;51.474;-2.576;2023-02-28T09:47:05;10.50;;;6.27;;
7685;SDS011;3885;51.474;-2.576;2023-02-28T09:49:37;15.00;;;7.10;;
7685;SDS011;3885;51.474;-2.576;2023-02-28T09:52:05;10.60;;;7.20;;
7685;SDS011;3885;51.474;-2.576;2023-02-28T09:54:36;10.33;;;6.23;;
7685;SDS011;3885;51.474;-2.576;2023-02-28T09:57:05;9.47;;;5.97;;
7685;SDS011;3885;51.474;-2.576;2023-02-28T10:02:23;11.27;;;6.07;;
7685;SDS011;3885;51.474;-2.576;2023-02-28T10:05:19;11.63;;;6.10;;
7685;SDS011;3885;51.474;-2.576;2023-02-28T10:07:50;10.47;;;6.67;;
7685;SDS011;3885;51.474;-2.576;2023-02-28T10:10:28;11.23;;;6.20;;
7685;SDS011;3885;51.474;-2.576;2023-02-28T10:13:04;11.53;;;7.20;;
7685;SDS011;3885;51.474;-2.576;2023-02-28T10:15:33;13.10;;;7.03;;
7685;SDS011;3885;51.474;-2.576;2023-02-28T10:18:02;13.80;;;6.40;;
7685;SDS011;3885;51.474;-2.576;2023-02-28T10:20:33;14.73;;;7.20;;
7685;SDS011;3885;51.474;-2.576;2023-02-28T10:23:03;13.20;;;6.00;;
7685;SDS011;3885;51.474;-2.576;2023-02-28T10:25:36;11.23;;;6.67;;
7685;SDS011;3885;51.474;-2.576;2023-02-28T10:28:10;10.50;;;6.50;;
7685;SDS011;3885;51.474;-2.576;2023-02-28T10:30:39;10.30;;;6.10;;
7685;SDS011;3885;51.474;-2.576;2023-02-28T10:33:08;10.60;;;6.13;;
7685;SDS011;3885;51.474;-2.576;2023-02-28T10:35:44;9.20;;;5.57;;
7685;SDS011;3885;51.474;-2.576;2023-02-28T10:38:14;10.30;;;5.23;;
7685;SDS011;3885;51.474;-2.576;2023-02-28T10:40:43;14.83;;;5.10;;
7685;SDS011;3885;51.474;-2.576;2023-02-28T10:43:18;10.77;;;6.70;;
7685;SDS011;3885;51.474;-2.576;2023-02-28T10:45:55;9.43;;;6.03;;
7685;SDS011;3885;51.474;-2.576;2023-02-28T10:48:36;11.30;;;5.70;;
7685;SDS011;3885;51.474;-2.576;2023-02-28T10:51:06;10.43;;;6.13;;
7685;SDS011;3885;51.474;-2.576;2023-02-28T10:53:39;13.60;;;5.77;;
7685;SDS011;3885;51.474;-2.576;2023-02-28T10:56:15;8.60;;;4.93;;
7685;SDS011;3885;51.474;-2.576;2023-02-28T10:58:47;14.10;;;6.07;;
7685;SDS011;3885;51.474;-2.576;2023-02-28T11:01:17;10.00;;;5.40;;
7685;SDS011;3885;51.474;-2.576;2023-02-28T11:03:46;9.30;;;6.10;;
7685;SDS011;3885;51.474;-2.576;2023-02-28T11:06:15;7.70;;;4.93;;
7685;SDS011;3885;51.474;-2.576;2023-02-28T11:08:46;9.07;;;5.00;;
7685;SDS011;3885;51.474;-2.576;2023-02-28T11:11:14;11.50;;;6.10;;
7685;SDS011;3885;51.474;-2.576;2023-02-28T11:13:43;10.43;;;4.03;;
7685;SDS011;3885;51.474;-2.576;2023-02-28T11:16:12;6.20;;;3.63;;
7685;SDS011;3885;51.474;-2.576;2023-02-28T11:18:42;5.97;;;3.90;;
7685;SDS011;3885;51.474;-2.576;2023-02-28T11:21:16;10.80;;;5.33;;
7685;SDS011;3885;51.474;-2.576;2023-02-28T11:23:47;13.60;;;5.60;;
7685;SDS011;3885;51.474;-2.576;2023-02-28T11:26:16;10.97;;;6.20;;
7685;SDS011;3885;51.474;-2.576;2023-02-28T11:28:50;8.40;;;4.63;;
7685;SDS011;3885;51.474;-2.576;2023-02-28T11:31:34;7.10;;;5.30;;
7685;SDS011;3885;51.474;-2.576;2023-02-28T11:34:08;13.00;;;5.97;;
7685;SDS011;3885;51.474;-2.576;2023-02-28T11:36:49;9.33;;;5.30;;
7685;SDS011;3885;51.474;-2.576;2023-02-28T11:39:19;14.30;;;6.47;;
7685;SDS011;3885;51.474;-2.576;2023-02-28T11:41:53;7.37;;;4.50;;
7685;SDS011;3885;51.474;-2.576;2023-02-28T11:44:34;7.93;;;4.40;;
7685;SDS011;3885;51.474;-2.576;2023-02-28T11:47:07;8.07;;;4.70;;
7685;SDS011;3885;51.474;-2.576;2023-02-28T11:49:40;8.27;;;5.00;;
7685;SDS011;3885;51.474;-2.576;2023-02-28T11:52:16;9.67;;;4.30;;
7685;SDS011;3885;51.474;-2.576;2023-02-28T11:54:57;9.40;;;5.70;;
7685;SDS011;3885;51.474;-2.576;2023-02-28T11:57:41;7.23;;;4.87;;
7685;SDS011;3885;51.474;-2.576;2023-02-28T12:03:14;13.20;;;4.00;;
7685;SDS011;3885;51.474;-2.576;2023-02-28T12:05:43;5.80;;;3.67;;
7685;SDS011;3885;51.474;-2.576;2023-02-28T12:08:18;17.97;;;8.40;;
7685;SDS011;3885;51.474;-2.576;2023-02-28T12:11:02;11.93;;;7.43;;
7685;SDS011;3885;51.474;-2.576;2023-02-28T12:13:39;57.00;;;19.80;;
7685;SDS011;3885;51.474;-2.576;2023-02-28T12:16:13;35.17;;;11.30;;
7685;SDS011;3885;51.474;-2.576;2023-02-28T12:18:58;73.57;;;30.10;;
7685;SDS011;3885;51.474;-2.576;2023-02-28T12:21:35;78.60;;;32.53;;
7685;SDS011;3885;51.474;-2.576;2023-02-28T12:24:28;32.10;;;14.90;;
7685;SDS011;3885;51.474;-2.576;2023-02-28T12:27:17;62.90;;;23.60;;
7685;SDS011;3885;51.474;-2.576;2023-02-28T12:29:47;33.60;;;14.50;;
7685;SDS011;3885;51.474;-2.576;2023-02-28T12:32:20;21.87;;;10.17;;
7685;SDS011;3885;51.474;-2.576;2023-02-28T12:34:51;8.30;;;4.70;;
7685;SDS011;3885;51.474;-2.576;2023-02-28T12:37:19;23.87;;;10.63;;
7685;SDS011;3885;51.474;-2.576;2023-02-28T12:39:54;6.67;;;5.30;;
7685;SDS011;3885;51.474;-2.576;2023-02-28T12:42:26;19.77;;;9.87;;
7685;SDS011;3885;51.474;-2.576;2023-02-28T12:44:56;51.80;;;19.50;;
7685;SDS011;3885;51.474;-2.576;2023-02-28T12:47:24;10.87;;;6.17;;
7685;SDS011;3885;51.474;-2.576;2023-02-28T12:49:52;9.63;;;3.80;;
7685;SDS011;3885;51.474;-2.576;2023-02-28T12:52:24;7.53;;;3.93;;
7685;SDS011;3885;51.474;-2.576;2023-02-28T12:54:59;9.00;;;3.10;;
7685;SDS011;3885;51.474;-2.576;2023-02-28T12:57:33;3.60;;;3.07;;
7685;SDS011;3885;51.474;-2.576;2023-02-28T13:00:09;5.60;;;2.83;;
7685;SDS011;3885;51.474;-2.576;2023-02-28T13:05:30;4.77;;;2.90;;
7685;SDS011;3885;51.474;-2.576;2023-02-28T13:08:38;7.77;;;2.70;;
7685;SDS011;3885;51.474;-2.576;2023-02-28T13:11:29;4.07;;;3.20;;
7685;SDS011;3885;51.474;-2.576;2023-02-28T13:13:59;3.90;;;2.93;;
7685;SDS011;3885;51.474;-2.576;2023-02-28T13:16:28;4.13;;;2.93;;
7685;SDS011;3885;51.474;-2.576;2023-02-28T13:19:21;3.73;;;3.03;;
7685;SDS011;3885;51.474;-2.576;2023-02-28T13:21:50;4.80;;;2.87;;
7685;SDS011;3885;51.474;-2.576;2023-02-28T13:27:20;3.40;;;2.80;;
7685;SDS011;3885;51.474;-2.576;2023-02-28T13:29:50;4.80;;;3.60;;
7685;SDS011;3885;51.474;-2.576;2023-02-28T13:32:34;6.83;;;4.17;;
7685;SDS011;3885;51.474;-2.576;2023-02-28T13:38:16;5.73;;;3.13;;
7685;SDS011;3885;51.474;-2.576;2023-02-28T13:44:09;4.37;;;3.07;;
7685;SDS011;3885;51.474;-2.576;2023-02-28T13:46:49;4.80;;;2.23;;
7685;SDS011;3885;51.474;-2.576;2023-02-28T13:49:42;5.03;;;2.70;;
7685;SDS011;3885;51.474;-2.576;2023-02-28T13:52:11;3.63;;;2.57;;
7685;SDS011;3885;51.474;-2.576;2023-02-28T13:54:44;6.13;;;3.43;;
7685;SDS011;3885;51.474;-2.576;2023-02-28T13:57:41;2.43;;;2.10;;
7685;SDS011;3885;51.474;-2.576;2023-02-28T14:00:17;1.73;;;1.50;;
7685;SDS011;3885;51.474;-2.576;2023-02-28T14:05:44;2.50;;;2.20;;
7685;SDS011;3885;51.474;-2.576;2023-02-28T14:08:13;4.50;;;2.70;;
7685;SDS011;3885;51.474;-2.576;2023-02-28T14:10:46;1.90;;;1.80;;
7685;SDS011;3885;51.474;-2.576;2023-02-28T14:16:04;2.63;;;1.87;;
7685;SDS011;3885;51.474;-2.576;2023-02-28T14:18:32;2.30;;;1.93;;
7685;SDS011;3885;51.474;-2.576;2023-02-28T14:21:02;2.10;;;1.70;;
7685;SDS011;3885;51.474;-2.576;2023-02-28T14:23:40;1.80;;;1.47;;
7685;SDS011;3885;51.474;-2.576;2023-02-28T14:32:33;3.77;;;1.93;;
7685;SDS011;3885;51.474;-2.576;2023-02-28T14:35:09;2.40;;;1.90;;
7685;SDS011;3885;51.474;-2.576;2023-02-28T14:37:45;2.30;;;1.60;;
7685;SDS011;3885;51.474;-2.576;2023-02-28T14:40:14;3.90;;;2.30;;
7685;SDS011;3885;51.474;-2.576;2023-02-28T14:42:46;2.50;;;2.13;;
7685;SDS011;3885;51.474;-2.576;2023-02-28T14:45:18;5.80;;;2.80;;
7685;SDS011;3885;51.474;-2.576;2023-02-28T14:47:47;2.80;;;1.67;;
7685;SDS011;3885;51.474;-2.576;2023-02-28T14:50:19;2.63;;;1.50;;
7685;SDS011;3885;51.474;-2.576;2023-02-28T14:52:49;1.63;;;1.53;;
7685;SDS011;3885;51.474;-2.576;2023-02-28T14:55:19;1.57;;;1.47;;
7685;SDS011;3885;51.474;-2.576;2023-02-28T14:57:51;1.80;;;1.63;;
7685;SDS011;3885;51.474;-2.576;2023-02-28T15:00:21;1.80;;;1.70;;
7685;SDS011;3885;51.474;-2.576;2023-02-28T15:02:52;2.50;;;1.87;;
7685;SDS011;3885;51.474;-2.576;2023-02-28T15:05:23;1.63;;;1.53;;
7685;SDS011;3885;51.474;-2.576;2023-02-28T15:08:00;1.37;;;1.27;;
7685;SDS011;3885;51.474;-2.576;2023-02-28T15:10:28;2.00;;;1.90;;
7685;SDS011;3885;51.474;-2.576;2023-02-28T15:12:56;1.83;;;1.60;;
7685;SDS011;3885;51.474;-2.576;2023-02-28T15:15:24;1.77;;;1.67;;
7685;SDS011;3885;51.474;-2.576;2023-02-28T15:17:54;2.07;;;1.90;;
7685;SDS011;3885;51.474;-2.576;2023-02-28T15:20:25;2.63;;;1.87;;
7685;SDS011;3885;51.474;-2.576;2023-02-28T15:22:52;2.00;;;1.90;;
7685;SDS011;3885;51.474;-2.576;2023-02-28T15:25:22;1.93;;;1.50;;
7685;SDS011;3885;51.474;-2.576;2023-02-28T15:27:50;8.67;;;2.40;;
7685;SDS011;3885;51.474;-2.576;2023-02-28T15:30:20;1.20;;;1.10;;
7685;SDS011;3885;51.474;-2.576;2023-02-28T15:33:03;1.73;;;1.50;;
7685;SDS011;3885;51.474;-2.576;2023-02-28T15:35:31;2.10;;;2.00;;
7685;SDS011;3885;51.474;-2.576;2023-02-28T15:38:00;2.20;;;2.00;;
7685;SDS011;3885;51.474;-2.576;2023-02-28T15:40:28;2.00;;;1.83;;
7685;SDS011;3885;51.474;-2.576;2023-02-28T15:43:06;4.13;;;2.87;;
7685;SDS011;3885;51.474;-2.576;2023-02-28T15:45:41;2.50;;;2.30;;
7685;SDS011;3885;51.474;-2.576;2023-02-28T15:48:15;4.40;;;3.17;;
7685;SDS011;3885;51.474;-2.576;2023-02-28T15:50:44;3.77;;;2.73;;
7685;SDS011;3885;51.474;-2.576;2023-02-28T15:53:16;10.30;;;3.17;;
7685;SDS011;3885;51.474;-2.576;2023-02-28T15:55:45;13.80;;;5.30;;
7685;SDS011;3885;51.474;-2.576;2023-02-28T15:58:18;8.33;;;3.93;;